Time;durP1;ratioP1;P1;durP2;ratioP2;P2;SDS_P1;SDS_P2;PMS_P1;PMS_P2;Temp;Humidity;BMP_temperature;BMP_pressure;BME280_temperature;BME280_humidity;BME280_pressure;Samples;Min_cycle;Max_cycle;Signal;HPM_P1;HPM_P2
2022/03/06 00:01:02;;;;;;;;;99.50;80.75;;;;;8.87;66.02;101686.56;4974738;28;46084;-43
2022/03/06 00:03:28;;;;;;;;;100.50;69.00;;;;;8.88;65.74;101688.25;4974565;28;45449;-45
2022/03/06 00:05:53;;;;;;;;;99.25;71.75;;;;;8.85;66.60;101695.56;4974825;28;45402;-46
2022/03/06 00:08:19;;;;;;;;;97.25;70.75;;;;;8.84;64.67;101696.53;4974606;28;45361;-46
2022/03/06 00:10:44;;;;;;;;;98.75;69.00;;;;;8.79;64.58;101699.53;4974125;28;46029;-46
2022/03/06 00:13:10;;;;;;;;;102.25;72.00;;;;;8.78;65.54;101694.34;4974663;28;45363;-43
2022/03/06 00:15:35;;;;;;;;;105.75;79.00;;;;;8.75;65.59;101692.75;4974789;28;45409;-43
2022/03/06 00:18:01;;;;;;;;;104.25;75.75;;;;;8.74;66.31;101701.69;4974848;28;45279;-44
2022/03/06 00:20:26;;;;;;;;;100.75;70.50;;;;;8.63;64.52;101691.84;4974526;28;46829;-43
2022/03/06 00:22:52;;;;;;;;;99.50;69.25;;;;;8.68;64.93;101696.81;4974561;28;45316;-44
2022/03/06 00:25:18;;;;;;;;;97.50;72.00;;;;;8.61;65.01;101687.63;4974602;28;45240;-43
2022/03/06 00:27:43;;;;;;;;;98.25;72.25;;;;;8.64;65.63;101696.22;4974946;28;45284;-43
2022/03/06 00:30:09;;;;;;;;;100.25;69.75;;;;;8.57;65.30;101696.75;4974387;28;45357;-44
2022/03/06 00:32:35;;;;;;;;;96.75;70.25;;;;;8.59;65.46;101708.94;4974408;28;45425;-42
2022/03/06 00:35:00;;;;;;;;;102.75;67.25;;;;;8.57;65.03;101710.84;4974350;28;45662;-43
2022/03/06 00:37:25;;;;;;;;;103.00;71.25;;;;;8.54;65.55;101713.72;4974714;28;45348;-43
2022/03/06 00:39:51;;;;;;;;;102.00;69.50;;;;;8.46;65.50;101708.97;4974162;28;47286;-42
2022/03/06 00:42:16;;;;;;;;;98.00;67.50;;;;;8.50;63.88;101706.94;4974048;28;45327;-42
2022/03/06 00:44:42;;;;;;;;;97.75;67.50;;;;;8.47;64.81;101708.03;4974125;28;45391;-43
2022/03/06 00:47:07;;;;;;;;;99.00;66.75;;;;;8.45;64.54;101711.72;4974516;28;45300;-43
2022/03/06 00:49:33;;;;;;;;;93.25;69.00;;;;;8.40;63.69;101697.97;4974071;28;46097;-46
2022/03/06 00:51:59;;;;;;;;;89.00;65.25;;;;;8.40;63.81;101703.25;4974073;28;45451;-42
2022/03/06 00:54:25;;;;;;;;;100.25;68.50;;;;;8.38;63.55;101706.00;4974207;28;45887;-43
2022/03/06 00:56:50;;;;;;;;;95.00;66.25;;;;;8.37;62.79;101704.31;4974176;28;45503;-44
2022/03/06 00:59:16;;;;;;;;;89.75;65.75;;;;;8.28;63.21;101698.78;4973957;28;45601;-43
2022/03/06 01:01:42;;;;;;;;;92.25;65.50;;;;;8.31;62.33;101704.72;4974095;28;45414;-45
2022/03/06 01:04:08;;;;;;;;;99.75;68.75;;;;;8.29;62.18;101706.63;4973966;28;45457;-42
2022/03/06 01:06:33;;;;;;;;;88.50;63.75;;;;;8.23;62.40;101705.28;4974416;28;45359;-44
2022/03/06 01:08:58;;;;;;;;;91.50;66.75;;;;;8.24;62.49;101706.13;4973654;28;45413;-43
2022/03/06 01:11:24;;;;;;;;;91.25;65.00;;;;;8.19;62.68;101711.75;4972675;28;45290;-46
2022/03/06 01:13:49;;;;;;;;;91.50;67.50;;;;;8.18;61.84;101712.69;4973920;28;45356;-44
2022/03/06 01:16:15;;;;;;;;;93.00;66.75;;;;;8.14;61.65;101715.69;4973986;28;45345;-44
2022/03/06 01:18:40;;;;;;;;;96.50;65.25;;;;;8.10;61.68;101716.84;4973560;28;46008;-43
2022/03/06 01:21:06;;;;;;;;;83.75;61.75;;;;;8.07;62.19;101725.84;4975458;28;45261;-43
2022/03/06 01:23:32;;;;;;;;;90.50;65.50;;;;;8.03;62.08;101715.56;4976697;28;45399;-43
2022/03/06 01:25:57;;;;;;;;;88.25;62.00;;;;;7.99;61.25;101718.41;4977039;28;45339;-44
2022/03/06 01:28:23;;;;;;;;;92.50;64.00;;;;;7.87;61.71;101694.56;4976627;28;47095;-44
2022/03/06 01:30:48;;;;;;;;;84.50;62.00;;;;;7.93;61.24;101715.38;4976540;28;45414;-44
2022/03/06 01:33:14;;;;;;;;;92.75;63.00;;;;;7.90;61.21;101712.91;4976863;28;45393;-45
2022/03/06 01:35:39;;;;;;;;;94.50;66.25;;;;;7.87;61.11;101710.47;4977373;28;45426;-44
2022/03/06 01:38:05;;;;;;;;;89.50;65.75;;;;;7.82;61.13;101710.78;4976702;28;45982;-44
2022/03/06 01:40:30;;;;;;;;;82.25;61.00;;;;;7.83;60.80;101708.97;4976842;28;45437;-43
2022/03/06 01:42:55;;;;;;;;;88.50;64.00;;;;;7.79;60.97;101704.84;4976649;28;45789;-47
2022/03/06 01:45:22;;;;;;;;;93.00;64.50;;;;;7.73;61.39;101706.97;4976925;28;45482;-45
2022/03/06 01:47:50;;;;;;;;;89.75;61.75;;;;;7.71;60.74;101708.88;4976411;28;46948;-45
2022/03/06 01:50:27;;;;;;;;;84.25;63.75;;;;;7.64;60.52;101704.09;4976702;28;45386;-45
2022/03/06 01:52:54;;;;;;;;;90.00;64.50;;;;;7.64;60.78;101706.75;4976538;28;45596;-42
2022/03/06 01:55:23;;;;;;;;;95.00;65.50;;;;;7.53;60.69;101704.81;4976529;28;45361;-46
2022/03/06 01:57:48;;;;;;;;;80.50;55.00;;;;;7.57;60.81;101713.41;4976437;28;45477;-45
2022/03/06 02:00:17;;;;;;;;;87.00;63.25;;;;;7.50;60.26;101708.53;4976333;28;45276;-45
2022/03/06 02:02:43;;;;;;;;;90.25;65.75;;;;;7.49;60.62;101716.56;4976315;28;45385;-46
2022/03/06 02:05:09;;;;;;;;;88.75;65.75;;;;;7.44;60.64;101713.38;4976442;28;45434;-43
2022/03/06 02:07:35;;;;;;;;;85.50;61.25;;;;;7.38;60.57;101704.06;4976054;28;46199;-43
2022/03/06 02:10:01;;;;;;;;;85.50;63.00;;;;;7.38;60.94;101703.22;4976267;28;45421;-44
2022/03/06 02:12:27;;;;;;;;;84.00;61.75;;;;;7.39;60.44;101710.22;4976270;28;45338;-44
2022/03/06 02:15:05;;;;;;;;;86.75;64.25;;;;;7.37;60.45;101718.22;4976374;28;45342;-46
2022/03/06 02:17:31;;;;;;;;;81.25;58.50;;;;;7.34;60.38;101709.66;4976063;28;47016;-42
2022/03/06 02:20:06;;;;;;;;;86.00;64.50;;;;;7.30;60.53;101710.81;4975905;28;45354;-43
2022/03/06 02:22:33;;;;;;;;;88.75;63.75;;;;;7.17;60.01;101698.41;4976097;28;45674;-44
2022/03/06 02:25:02;;;;;;;;;89.50;63.00;;;;;7.22;60.19;101722.75;4976247;28;45366;-45
2022/03/06 02:27:28;;;;;;;;;86.75;65.25;;;;;7.12;60.29;101713.75;4975741;28;47478;-44
2022/03/06 02:29:53;;;;;;;;;74.00;59.50;;;;;7.09;60.13;101711.28;4975912;28;46161;-44
2022/03/06 02:32:21;;;;;;;;;86.00;64.00;;;;;7.10;60.28;101709.47;4975517;28;45317;-44
2022/03/06 02:34:48;;;;;;;;;85.75;63.00;;;;;7.09;59.95;101713.09;4975974;28;45304;-47
2022/03/06 02:37:16;;;;;;;;;85.75;60.75;;;;;7.00;60.04;101711.88;4975788;28;45450;-43
2022/03/06 02:39:43;;;;;;;;;81.50;64.50;;;;;6.94;60.22;101705.19;4975718;28;45328;-45
2022/03/06 02:42:10;;;;;;;;;92.25;65.50;;;;;6.95;60.37;101712.19;4975845;28;45497;-44
2022/03/06 02:44:36;;;;;;;;;87.00;65.25;;;;;6.90;60.36;101714.25;4975936;28;45533;-45
2022/03/06 02:47:03;;;;;;;;;89.75;67.25;;;;;6.84;60.25;101705.91;4975657;28;47022;-43
2022/03/06 02:49:28;;;;;;;;;90.75;68.75;;;;;6.80;60.11;101702.59;4975531;28;45376;-44
2022/03/06 02:51:54;;;;;;;;;95.25;67.00;;;;;6.80;59.79;101709.69;4975814;28;45430;-42
2022/03/06 02:54:22;;;;;;;;;88.50;64.75;;;;;6.76;60.33;101711.66;4976013;28;45410;-43
2022/03/06 02:56:48;;;;;;;;;92.00;65.50;;;;;6.72;60.26;101711.00;4975503;28;46261;-44
2022/03/06 02:59:14;;;;;;;;;87.50;63.25;;;;;6.68;60.16;101708.66;4975458;28;45509;-43
2022/03/06 03:01:41;;;;;;;;;86.25;65.25;;;;;6.68;60.33;101719.25;4975449;28;45341;-44
2022/03/06 03:04:10;;;;;;;;;91.75;65.25;;;;;6.66;60.07;101727.28;4975652;28;45520;-44
2022/03/06 03:06:36;;;;;;;;;88.50;62.00;;;;;6.65;60.31;101720.28;4975459;28;46113;-44
2022/03/06 03:09:06;;;;;;;;;83.50;62.25;;;;;6.64;60.20;101713.28;4975246;28;45464;-45
2022/03/06 03:11:33;;;;;;;;;90.25;65.00;;;;;6.62;60.56;101714.34;4975598;28;45426;-44
2022/03/06 03:14:00;;;;;;;;;86.50;64.50;;;;;6.61;60.44;101717.94;4975581;28;45453;-43
2022/03/06 03:16:25;;;;;;;;;93.00;65.25;;;;;6.57;60.16;101713.78;4975171;28;46082;-43
2022/03/06 03:18:50;;;;;;;;;85.00;63.00;;;;;6.53;60.50;101713.16;4975138;28;45418;-45
2022/03/06 03:21:16;;;;;;;;;87.75;63.25;;;;;6.41;60.57;101700.69;4975451;28;45335;-46
2022/03/06 03:23:41;;;;;;;;;87.50;63.75;;;;;6.47;60.58;101721.44;4975513;28;45303;-44
2022/03/06 03:26:06;;;;;;;;;82.50;59.75;;;;;6.46;60.52;101731.16;4975158;28;47085;-43
2022/03/06 03:28:32;;;;;;;;;90.50;65.00;;;;;6.43;59.97;101728.72;4975213;28;45417;-44
2022/03/06 03:30:57;;;;;;;;;83.25;60.75;;;;;6.39;59.76;101729.84;4975213;28;45862;-45
2022/03/06 03:33:22;;;;;;;;;87.75;63.00;;;;;6.37;60.37;101730.91;4975328;28;45393;-46
2022/03/06 03:35:48;;;;;;;;;85.75;62.50;;;;;6.33;59.91;101732.88;4974888;28;45467;-45
2022/03/06 03:38:14;;;;;;;;;79.50;60.25;;;;;6.32;60.26;101741.75;4974958;28;45315;-47
2022/03/06 03:40:40;;;;;;;;;80.25;61.25;;;;;6.20;60.66;101722.22;4975184;28;45432;-47
2022/03/06 03:43:05;;;;;;;;;73.75;57.75;;;;;6.25;60.40;101732.50;4974697;28;45529;-43
2022/03/06 03:45:31;;;;;;;;;84.75;62.25;;;;;6.27;60.17;101735.03;4973896;28;45506;-43
2022/03/06 03:47:56;;;;;;;;;84.00;62.00;;;;;6.24;60.65;101738.75;4974938;28;45255;-42
2022/03/06 03:50:22;;;;;;;;;87.75;63.25;;;;;6.23;60.38;101744.94;4974941;28;45440;-43
2022/03/06 03:52:47;;;;;;;;;88.75;64.00;;;;;6.22;61.05;101738.81;4975125;28;45449;-45
2022/03/06 03:55:12;;;;;;;;;84.75;62.25;;;;;6.19;60.81;101743.44;4974858;28;45334;-44
2022/03/06 03:57:38;;;;;;;;;80.00;60.00;;;;;6.16;60.46;101739.22;4973536;28;45310;-43
2022/03/06 04:00:05;;;;;;;;;83.50;61.50;;;;;6.17;60.83;101750.63;4974955;28;45360;-45
2022/03/06 04:02:30;;;;;;;;;82.25;63.50;;;;;6.13;60.75;101751.75;4975051;28;45832;-44
2022/03/06 04:04:56;;;;;;;;;75.00;57.50;;;;;6.10;60.02;101750.13;4974306;28;47178;-45
2022/03/06 04:07:21;;;;;;;;;87.75;64.50;;;;;6.07;60.98;101752.97;4974856;28;45425;-43
2022/03/06 04:09:46;;;;;;;;;80.25;58.75;;;;;6.00;60.33;101741.06;4974839;28;45252;-44
2022/03/06 04:12:12;;;;;;;;;88.00;65.75;;;;;6.01;61.14;101761.25;4974890;28;45307;-46
2022/03/06 04:14:37;;;;;;;;;80.25;61.00;;;;;5.97;60.89;101760.59;4974224;28;45402;-44
2022/03/06 04:17:02;;;;;;;;;88.50;63.50;;;;;5.92;60.82;101762.66;4974453;28;45311;-49
2022/03/06 04:19:28;;;;;;;;;88.25;64.50;;;;;5.92;61.22;101773.22;4974806;28;45417;-45
2022/03/06 04:21:53;;;;;;;;;83.00;62.75;;;;;5.89;60.55;101770.72;4974946;28;45352;-43
2022/03/06 04:24:19;;;;;;;;;83.00;62.25;;;;;5.87;61.49;101771.78;4974542;28;46289;-43
2022/03/06 04:26:44;;;;;;;;;87.75;63.25;;;;;5.83;60.60;101765.81;4974559;28;45274;-47
2022/03/06 04:29:10;;;;;;;;;91.00;62.75;;;;;5.72;61.32;101761.16;4974541;28;45332;-44
2022/03/06 04:31:35;;;;;;;;;88.75;65.75;;;;;5.75;61.38;101776.84;4974694;28;45386;-44
2022/03/06 04:34:01;;;;;;;;;89.50;66.00;;;;;5.74;61.18;101774.28;4974143;28;46217;-49
2022/03/06 04:36:26;;;;;;;;;84.00;62.00;;;;;5.68;61.31;101777.28;4974452;28;45341;-48
2022/03/06 04:38:52;;;;;;;;;90.00;64.50;;;;;5.68;61.38;101774.63;4974439;28;45332;-43
2022/03/06 04:41:18;;;;;;;;;82.25;62.00;;;;;5.67;62.02;101781.72;4974641;28;45375;-44
2022/03/06 04:43:43;;;;;;;;;82.50;60.00;;;;;5.66;62.09;101784.44;4974177;28;45259;-43
2022/03/06 04:46:09;;;;;;;;;85.25;66.00;;;;;5.56;61.63;101768.28;4974203;28;45410;-48
2022/03/06 04:48:34;;;;;;;;;94.50;61.50;;;;;5.62;62.15;101793.50;4974420;28;45334;-43
2022/03/06 04:50:59;;;;;;;;;86.50;65.50;;;;;5.60;61.47;101783.00;4974349;28;45356;-48
2022/03/06 04:53:25;;;;;;;;;74.75;61.50;;;;;5.58;62.31;101790.16;4974302;28;47086;-44
2022/03/06 04:55:50;;;;;;;;;86.75;64.00;;;;;5.55;61.82;101790.34;4973623;28;45358;-45
2022/03/06 04:58:16;;;;;;;;;82.00;60.50;;;;;5.55;61.60;101787.69;4974107;28;45879;-45
2022/03/06 05:00:41;;;;;;;;;80.00;62.25;;;;;5.54;62.30;101782.53;4974494;28;45373;-43
2022/03/06 05:03:07;;;;;;;;;90.50;66.00;;;;;5.50;62.19;101787.13;4974098;28;46126;-44
2022/03/06 05:05:32;;;;;;;;;75.25;59.25;;;;;5.49;62.66;101777.50;4973866;28;45360;-46
2022/03/06 05:07:57;;;;;;;;;83.75;63.00;;;;;5.46;62.36;101786.44;4974318;28;45288;-43
2022/03/06 05:10:23;;;;;;;;;88.50;64.50;;;;;5.45;62.39;101789.19;4974175;28;45500;-46
2022/03/06 05:12:48;;;;;;;;;94.25;66.50;;;;;5.39;62.25;101793.00;4973648;28;46956;-44
2022/03/06 05:15:14;;;;;;;;;80.50;65.00;;;;;5.42;62.88;101803.38;4973873;28;45363;-45
2022/03/06 05:17:40;;;;;;;;;83.00;63.50;;;;;5.41;61.96;101804.34;4973918;28;45288;-44
2022/03/06 05:20:07;;;;;;;;;86.75;62.25;;;;;5.29;62.02;101789.19;4974048;28;45340;-43
2022/03/06 05:22:32;;;;;;;;;86.25;63.75;;;;;5.35;62.32;101812.63;4973495;28;47440;-48
2022/03/06 05:24:58;;;;;;;;;89.50;64.00;;;;;5.39;63.11;101807.97;4973578;28;45285;-44
2022/03/06 05:27:25;;;;;;;;;88.50;65.50;;;;;5.38;62.56;101820.34;4973676;28;45410;-45
2022/03/06 05:29:50;;;;;;;;;82.25;64.00;;;;;5.36;62.36;101811.66;4973855;28;45374;-43
2022/03/06 05:32:16;;;;;;;;;89.25;66.00;;;;;5.34;62.27;101813.53;4973650;28;45334;-44
2022/03/06 05:34:41;;;;;;;;;88.75;62.50;;;;;5.33;63.00;101811.84;4973393;28;45432;-43
2022/03/06 05:37:07;;;;;;;;;87.50;62.25;;;;;5.31;62.52;101811.09;4973758;28;45428;-44
2022/03/06 05:39:32;;;;;;;;;91.00;64.50;;;;;5.32;63.38;101807.50;4973615;28;45255;-49
2022/03/06 05:41:58;;;;;;;;;89.25;64.75;;;;;5.28;63.36;101802.47;4973281;28;45373;-43
2022/03/06 05:44:24;;;;;;;;;93.00;63.50;;;;;5.26;62.24;101807.81;4973347;28;45353;-49
2022/03/06 05:46:50;;;;;;;;;86.00;61.75;;;;;5.27;62.44;101817.47;4973367;28;45342;-43
2022/03/06 05:49:15;;;;;;;;;89.25;64.75;;;;;5.28;63.09;101813.03;4973677;28;45410;-45
2022/03/06 05:51:42;;;;;;;;;93.50;65.00;;;;;5.25;63.30;101820.16;4972878;28;45608;-47
2022/03/06 05:54:08;;;;;;;;;88.00;66.50;;;;;5.25;62.98;101816.69;4973285;28;45457;-44
2022/03/06 05:56:34;;;;;;;;;95.00;67.50;;;;;5.16;62.62;101810.13;4973339;28;45383;-47
2022/03/06 05:59:00;;;;;;;;;88.50;65.25;;;;;5.13;63.24;101801.53;4973396;28;45375;-48
2022/03/06 06:01:29;;;;;;;;;95.50;65.25;;;;;5.22;63.23;101830.03;4973063;28;46248;-42
2022/03/06 06:03:55;;;;;;;;;91.75;62.75;;;;;5.20;62.58;101831.94;4972890;28;45342;-46
2022/03/06 06:06:20;;;;;;;;;89.75;64.75;;;;;5.17;62.63;101830.31;4973004;28;45400;-42
2022/03/06 06:08:46;;;;;;;;;90.00;65.75;;;;;5.17;63.19;101826.81;4976098;28;45534;-44
2022/03/06 06:11:11;;;;;;;;;88.25;66.00;;;;;5.15;63.01;101826.06;4976060;28;47161;-47
2022/03/06 06:13:36;;;;;;;;;82.25;64.75;;;;;5.14;63.41;101838.41;4976294;28;45415;-42
2022/03/06 06:16:02;;;;;;;;;86.75;65.00;;;;;5.08;63.18;101828.19;4976293;28;45344;-43
2022/03/06 06:18:30;;;;;;;;;92.00;68.00;;;;;5.07;63.41;101829.13;4976545;28;45465;-46
2022/03/06 06:20:56;;;;;;;;;86.75;69.00;;;;;5.07;63.26;101833.53;4976047;28;46034;-45
2022/03/06 06:23:21;;;;;;;;;75.75;59.00;;;;;5.09;62.68;101834.28;4975988;28;45464;-44
2022/03/06 06:25:47;;;;;;;;;82.00;61.25;;;;;5.09;63.48;101844.84;4975882;28;45590;-47
2022/03/06 06:28:12;;;;;;;;;91.50;62.75;;;;;5.08;63.44;101843.16;4976300;28;45363;-43
2022/03/06 06:30:37;;;;;;;;;90.00;68.00;;;;;5.07;62.74;101842.31;4975862;28;46187;-46
2022/03/06 06:33:03;;;;;;;;;90.25;63.25;;;;;5.11;62.74;101850.91;4976071;28;45313;-43
2022/03/06 06:35:28;;;;;;;;;85.00;63.50;;;;;5.05;62.73;101832.75;4975830;28;45457;-46
2022/03/06 06:37:53;;;;;;;;;89.25;64.50;;;;;5.14;62.44;101853.34;4976212;28;45721;-43
2022/03/06 06:40:19;;;;;;;;;94.50;69.75;;;;;5.13;63.36;101847.22;4976118;28;47120;-43
2022/03/06 06:42:44;;;;;;;;;88.50;66.25;;;;;5.06;61.95;101843.25;4975490;28;45431;-44
2022/03/06 06:45:10;;;;;;;;;82.50;62.00;;;;;5.14;62.65;101850.72;4975908;28;45469;-47
2022/03/06 06:47:35;;;;;;;;;82.75;64.00;;;;;5.13;62.40;101857.78;4976061;28;45398;-45
2022/03/06 06:50:02;;;;;;;;;89.25;62.50;;;;;5.12;61.99;101860.50;4975870;28;45227;-43
2022/03/06 06:52:27;;;;;;;;;94.75;67.25;;;;;5.09;61.96;101861.53;4975472;28;45473;-42
2022/03/06 06:54:52;;;;;;;;;81.75;62.25;;;;;5.09;61.62;101872.06;4975962;28;45311;-43
2022/03/06 06:57:18;;;;;;;;;88.25;62.25;;;;;5.09;62.63;101879.13;4976147;28;44733;-42
2022/03/06 06:59:43;;;;;;;;;95.50;66.00;;;;;5.08;61.89;101875.66;4975435;28;46303;-43
2022/03/06 07:02:09;;;;;;;;;92.75;64.75;;;;;5.10;62.25;101880.81;4975652;28;45224;-43
2022/03/06 07:04:34;;;;;;;;;90.00;64.00;;;;;5.11;61.55;101888.69;4975512;28;45876;-46
2022/03/06 07:06:59;;;;;;;;;88.75;64.25;;;;;5.11;61.39;101888.69;4975846;28;45433;-44
2022/03/06 07:09:25;;;;;;;;;84.25;63.75;;;;;5.17;62.30;101882.22;4975346;28;45429;-48
2022/03/06 07:11:50;;;;;;;;;93.67;69.67;;;;;5.23;62.33;101885.38;4975384;28;45375;-44
2022/03/06 07:14:15;;;;;;;;;88.50;67.75;;;;;5.26;62.33;101881.69;4975769;28;45424;-49
2022/03/06 07:16:43;;;;;;;;;90.50;66.00;;;;;5.37;62.20;101881.97;4975491;28;45311;-42
2022/03/06 07:19:08;;;;;;;;;85.50;64.75;;;;;5.39;61.58;101887.16;4975022;28;47041;-50
2022/03/06 07:21:33;;;;;;;;;87.75;62.75;;;;;5.44;61.47;101885.13;4975098;28;45265;-47
2022/03/06 07:23:59;;;;;;;;;86.00;65.25;;;;;5.49;60.79;101891.00;4975374;28;45449;-46
2022/03/06 07:26:24;;;;;;;;;82.25;61.75;;;;;5.52;60.54;101885.56;4975543;28;45373;-46
2022/03/06 07:28:49;;;;;;;;;88.75;67.50;;;;;5.60;61.18;101898.28;4975147;28;45982;-45
2022/03/06 07:31:15;;;;;;;;;94.50;66.00;;;;;5.70;60.41;101900.34;4974995;28;45597;-49
2022/03/06 07:33:40;;;;;;;;;91.75;66.00;;;;;5.87;60.24;101902.03;4975081;28;45327;-47
2022/03/06 07:36:06;;;;;;;;;88.25;65.75;;;;;5.97;60.16;101907.66;4975249;28;45359;-51
2022/03/06 07:38:31;;;;;;;;;86.75;64.50;;;;;6.06;59.51;101911.53;4974857;28;46269;-48
2022/03/06 07:40:56;;;;;;;;;92.00;68.00;;;;;6.12;59.42;101901.50;4975259;28;45319;-46
2022/03/06 07:43:22;;;;;;;;;91.00;65.00;;;;;6.16;59.39;101912.72;4974812;28;45303;-49
2022/03/06 07:45:47;;;;;;;;;87.75;63.75;;;;;6.21;59.19;101913.31;4975445;28;45341;-48
2022/03/06 07:48:12;;;;;;;;;92.50;67.75;;;;;6.23;59.11;101914.91;4974861;28;45293;-47
2022/03/06 07:50:38;;;;;;;;;87.75;64.25;;;;;6.29;58.86;101920.78;4975042;28;45361;-48
2022/03/06 07:53:04;;;;;;;;;89.75;63.75;;;;;6.31;59.36;101919.75;4975081;28;45493;-45
2022/03/06 07:55:29;;;;;;;;;91.75;65.25;;;;;6.28;58.76;101903.22;4975099;28;45422;-48
2022/03/06 07:57:54;;;;;;;;;87.50;62.25;;;;;6.45;58.28;101924.22;4974799;28;45998;-44
2022/03/06 08:00:20;;;;;;;;;87.00;62.50;;;;;6.46;58.17;101925.94;4974824;28;45411;-45
2022/03/06 08:02:45;;;;;;;;;91.25;66.25;;;;;6.48;57.76;101927.53;4975231;28;45452;-42
2022/03/06 08:05:11;;;;;;;;;87.25;59.00;;;;;6.55;57.61;101928.00;4975064;28;45376;-44
2022/03/06 08:07:36;;;;;;;;;88.75;68.00;;;;;6.59;57.65;101926.88;4974509;28;46610;-43
2022/03/06 08:10:04;;;;;;;;;91.50;66.00;;;;;6.66;57.53;101930.88;4974961;28;45720;-51
2022/03/06 08:12:29;;;;;;;;;89.00;66.00;;;;;6.70;57.35;101934.16;4974856;28;45287;-47
2022/03/06 08:14:55;;;;;;;;;84.25;64.25;;;;;6.74;56.99;101946.25;4975120;28;45325;-48
2022/03/06 08:17:21;;;;;;;;;88.00;66.50;;;;;6.84;56.53;101960.66;4974681;28;45502;-46
2022/03/06 08:19:46;;;;;;;;;84.75;63.25;;;;;6.90;56.53;101954.13;4974764;28;45236;-44
2022/03/06 08:22:12;;;;;;;;;83.25;61.75;;;;;6.97;56.45;101964.25;4974748;28;45384;-43
2022/03/06 08:24:38;;;;;;;;;84.75;64.25;;;;;7.04;56.05;101948.84;4975039;28;45412;-46
2022/03/06 08:27:03;;;;;;;;;86.00;64.00;;;;;7.17;55.65;101956.88;4974540;28;45315;-46
2022/03/06 08:29:29;;;;;;;;;85.25;63.25;;;;;7.22;55.11;101946.88;4974023;28;45307;-44
2022/03/06 08:31:54;;;;;;;;;88.25;63.25;;;;;7.37;54.81;101952.97;4974462;28;45356;-48
2022/03/06 08:34:20;;;;;;;;;82.25;60.50;;;;;7.48;54.52;101961.94;4974782;28;45501;-48
2022/03/06 08:36:45;;;;;;;;;81.25;61.50;;;;;7.62;54.73;101957.56;4974537;28;46160;-45
2022/03/06 08:39:10;;;;;;;;;84.00;62.50;;;;;7.75;54.37;101958.47;4974466;28;45437;-45
2022/03/06 08:41:36;;;;;;;;;80.00;60.25;;;;;8.04;52.96;101963.69;4974247;28;45296;-45
2022/03/06 08:44:01;;;;;;;;;86.25;62.50;;;;;9.42;50.66;101960.47;4974144;28;45362;-45
2022/03/06 08:46:27;;;;;;;;;71.50;54.50;;;;;10.89;49.58;101955.69;4974126;28;46241;-46
2022/03/06 08:48:52;;;;;;;;;69.75;52.00;;;;;12.04;47.26;101949.16;4974204;28;45443;-49
2022/03/06 08:51:18;;;;;;;;;69.00;56.25;;;;;12.77;46.07;101954.63;4974313;28;45324;-45
2022/03/06 08:53:43;;;;;;;;;76.50;55.50;;;;;13.60;41.12;101949.09;4974243;28;45366;-49
2022/03/06 08:56:08;;;;;;;;;70.75;53.50;;;;;14.55;38.12;101942.31;4974096;28;46145;-49
2022/03/06 08:58:35;;;;;;;;;68.75;52.75;;;;;15.21;38.06;101953.81;4974216;28;45422;-48
2022/03/06 09:01:00;;;;;;;;;70.50;52.25;;;;;15.46;38.26;101948.75;4974087;28;45348;-48
2022/03/06 09:03:26;;;;;;;;;72.75;54.00;;;;;15.33;37.95;101942.88;4974262;28;45283;-46
2022/03/06 09:05:51;;;;;;;;;69.25;51.00;;;;;15.03;36.81;101944.84;4975087;28;46045;-48
2022/03/06 09:08:16;;;;;;;;;67.50;51.75;;;;;14.90;36.28;101941.66;4973313;28;45306;-43
2022/03/06 09:10:42;;;;;;;;;75.25;53.75;;;;;14.92;36.42;101948.56;5031551;28;45365;-47
2022/03/06 09:13:08;;;;;;;;;66.50;49.75;;;;;15.06;36.51;101952.59;5076015;27;45492;-48
2022/03/06 09:15:35;;;;;;;;;66.25;51.25;;;;;15.16;36.07;101949.88;5076253;27;47304;-47
2022/03/06 09:18:01;;;;;;;;;72.00;51.25;;;;;15.35;34.87;101947.13;5076221;27;45414;-49
2022/03/06 09:20:27;;;;;;;;;66.25;50.25;;;;;15.69;35.41;101933.97;5076003;27;45373;-45
2022/03/06 09:22:53;;;;;;;;;65.75;47.25;;;;;16.54;35.84;101950.53;5076372;27;45331;-48
2022/03/06 09:25:18;;;;;;;;;66.75;50.00;;;;;17.58;35.67;101955.00;5075560;27;46063;-47
2022/03/06 09:27:44;;;;;;;;;62.00;48.00;;;;;18.45;34.80;101948.25;5076182;27;45307;-46
2022/03/06 09:30:10;;;;;;;;;55.25;45.25;;;;;19.10;29.99;101940.06;5076082;27;45419;-47
2022/03/06 09:32:37;;;;;;;;;53.50;45.75;;;;;19.56;31.90;101942.09;5076311;27;45378;-49
2022/03/06 09:35:03;;;;;;;;;61.75;47.50;;;;;20.05;27.56;101944.50;5075995;27;45400;-49
2022/03/06 09:37:28;;;;;;;;;66.25;47.50;;;;;20.43;27.88;101950.78;5075431;27;45439;-47
2022/03/06 09:39:54;;;;;;;;;60.00;46.50;;;;;20.76;27.89;101953.22;5076209;27;45373;-46
2022/03/06 09:42:21;;;;;;;;;57.00;42.67;;;;;21.05;26.68;101942.41;5076858;27;45312;-48
2022/03/06 09:44:48;;;;;;;;;62.33;46.67;;;;;21.39;24.75;101951.84;5079226;27;46471;-47
2022/03/06 09:47:14;;;;;;;;;55.33;42.67;;;;;21.62;26.25;101960.69;5078675;27;45397;-47
2022/03/06 09:49:43;;;;;;;;;56.67;44.00;;;;;21.92;26.56;101966.03;5079443;27;45324;-49
2022/03/06 09:52:08;;;;;;;;;60.33;42.00;;;;;22.35;24.61;101960.63;5079286;27;45396;-46
2022/03/06 09:54:34;;;;;;;;;56.33;42.33;;;;;22.71;24.18;101965.94;5079031;27;46971;-47
2022/03/06 09:57:00;;;;;;;;;59.67;44.00;;;;;23.18;24.02;101955.44;5079232;28;45283;-48
2022/03/06 09:59:26;;;;;;;;;51.33;42.33;;;;;23.34;25.31;101961.38;5077820;28;45452;-49
2022/03/06 10:01:51;;;;;;;;;55.67;41.67;;;;;23.54;22.96;101956.00;5079385;27;45480;-45
2022/03/06 10:04:29;;;;;;;;;50.00;39.00;;;;;23.72;25.59;101962.78;5078769;27;45727;-48
2022/03/06 10:07:10;;;;;;;;;50.67;40.00;;;;;23.95;24.69;101965.16;5079238;27;45644;-48
2022/03/06 10:09:44;;;;;;;;;49.67;40.00;;;;;24.00;21.60;101946.34;4969436;28;45554;-46
2022/03/06 10:12:32;;;;;;;;;49.67;41.00;;;;;24.22;23.28;101963.31;4972484;28;45652;-48
2022/03/06 10:15:06;;;;;;;;;49.00;36.67;;;;;24.33;23.70;101962.69;4969616;28;47022;-46
2022/03/06 10:17:33;;;;;;;;;47.67;38.67;;;;;24.36;21.72;101956.84;4974143;28;45448;-47
2022/03/06 10:20:10;;;;;;;;;51.00;34.00;;;;;24.36;21.38;101957.69;4975650;28;45398;-48
2022/03/06 10:22:37;;;;;;;;;45.67;34.67;;;;;24.46;22.24;101956.47;4973007;28;45287;-47
2022/03/06 10:25:10;;;;;;;;;46.00;37.33;;;;;24.59;19.48;101956.44;4975202;28;46342;-47
2022/03/06 10:27:46;;;;;;;;;43.33;35.00;;;;;24.58;22.52;101962.94;4972650;28;45453;-45
2022/03/06 10:30:21;;;;;;;;;43.33;35.00;;;;;24.39;23.20;101946.41;4975308;28;45319;-48
2022/03/06 10:32:46;;;;;;;;;38.67;33.00;;;;;23.97;22.30;101960.34;4975963;28;45576;-49
2022/03/06 10:35:12;;;;;;;;;44.33;36.00;;;;;23.31;20.56;101941.91;4973457;28;46133;-45
2022/03/06 10:37:37;;;;;;;;;41.00;36.00;;;;;22.77;25.80;101951.59;4975059;28;45412;-47
2022/03/06 10:40:03;;;;;;;;;38.67;34.00;;;;;22.24;26.20;101947.59;4975415;28;45299;-48
2022/03/06 10:42:28;;;;;;;;;36.67;28.33;;;;;21.89;25.39;101956.41;4975058;28;45407;-47
2022/03/06 10:44:53;;;;;;;;;32.67;29.33;;;;;21.67;26.06;101952.84;4974987;28;45248;-49
2022/03/06 10:47:19;;;;;;;;;38.33;30.33;;;;;21.28;24.92;101938.75;4975035;28;45311;-50
2022/03/06 10:50:03;;;;;;;;;28.33;26.67;;;;;20.76;26.64;101948.63;4975310;28;45418;-43
2022/03/06 10:52:28;;;;;;;;;33.67;25.67;;;;;20.50;23.71;101957.19;4974308;28;45543;-46
2022/03/06 10:54:56;;;;;;;;;38.00;31.33;;;;;20.36;23.49;101950.69;4974069;28;46120;-50
2022/03/06 10:57:23;;;;;;;;;24.33;23.33;;;;;20.36;27.47;101956.09;4976420;28;45508;-46
2022/03/06 10:59:49;;;;;;;;;31.00;23.00;;;;;20.09;23.06;101943.13;4973817;28;45441;-47
2022/03/06 11:02:15;;;;;;;;;27.67;24.00;;;;;20.08;23.87;101954.94;4974862;28;45517;-42
2022/03/06 11:04:48;;;;;;;;;27.00;24.00;;;;;20.11;24.13;101952.72;4975290;28;45243;-45
2022/03/06 11:07:14;;;;;;;;;32.00;25.67;;;;;20.29;23.21;101957.81;4975136;28;45351;-46
2022/03/06 11:09:39;;;;;;;;;31.00;24.00;;;;;20.78;24.20;101943.91;4975277;28;46133;-43